Bend, OR (97701)

8:32 PM PDT on April 01, 2015 (GMT -0700)
Lava Ridges | | Change Station
CLOSE
Current Station
Personal Weather Station
Location: Bend, OR
Elevation: 3465 ft
Nearby Weather Stations

Elev 3465 ft 44.09 °N, 121.28 °W | Updated 2 seconds ago

Partly Cloudy
Partly Cloudy
36.3 °F
Feels Like 36 °F
N
0.0
Wind Variable Wind from West
Gusts 0.0 mph

Today
High -- | Low -- °F
--% Chance of Precip.
Yesterday
High -- | Low -- °F
Precip. -- in
6:46 AM 7:32 PM
Waxing Gibbous, 95% visible
Pressure 30.20 in
Visibility 10.0 miles
Clouds Mostly Cloudy 7000 ft
Windchill 36 °F
Dew Point 27 °F
Humidity 68%
Rainfall in
Snow Depth Not available.
UV 0 out of 12
Pollen 5.40 out of 12
Air Quality Not available.
Flu Activity Not available.
METAR KBDN 020315Z AUTO 33006KT 10SM BKN070 03/M03 A3020 RMK AO2

More Conditions Fewer Conditions

Pressure 30.20 in
Visibility 10.0 miles
Clouds Mostly Cloudy 7000 ft
Windchill 36 °F
Dew Point 27 °F
Humidity 68%
Rainfall in
Snow Depth Not available.
UV 0 out of 12
Pollen 5.40 out of 12
Air Quality Not available.
Flu Activity Not available.
METAR KBDN 020315Z AUTO 33006KT 10SM BKN070 03/M03 A3020 RMK AO2

More Conditions Fewer Conditions

10-Day Weather Forecast

Almanac

Astronomy

Apr. 01, 2015 Rise Set
Actual Time
Civil Twilight
Nautical Twilight
Astronomical Twilight
Moon
Length of Visible Light
Length of Day
Tomorrow will be .
, % of the Moon is Illuminated

Today's Extremes

State Highs State Lows

Community

WunderPhotos

Upload Photos

1,810,188 photos uploaded!

WunderBlogs® & News

Nearby

Air Quality

  Air Quality AQ Index Pollutant
Not available.

Snow Depth

Station Depth Elevation

Earthquake Activity

City Distance Mag. Time & Date
Minimum magnitude displayed is 2.5.

Coastal Water Temperatures

Place Temperature

Stations

Nearby Weather Stations

Station Location Temp. Windchill Dew Point Humidity Wind Precip. Elev Updated Type